createdAt,value
2022-10-12T00:01:03.861Z,80.40
2022-10-12T00:03:32.173Z,81.60
2022-10-12T00:06:05.533Z,82.30
2022-10-12T00:08:36.507Z,82.70
2022-10-12T00:11:05.362Z,84.80
2022-10-12T00:13:33.927Z,87.20
2022-10-12T00:16:04.823Z,87.60
2022-10-12T00:18:33.768Z,88.50
2022-10-12T00:21:03.224Z,88.10
2022-10-12T00:23:32.111Z,88.20
2022-10-12T00:26:05.072Z,89.30
2022-10-12T00:28:33.661Z,89.60
2022-10-12T00:31:02.784Z,89.70
2022-10-12T00:33:31.068Z,89.40
2022-10-12T00:35:59.395Z,89.30
2022-10-12T00:38:27.730Z,89.40
2022-10-12T00:40:56.023Z,89.30
2022-10-12T00:43:31.854Z,88.80
2022-10-12T00:46:02.884Z,88.90
2022-10-12T00:48:31.475Z,88.80
2022-10-12T00:51:02.851Z,89.90
2022-10-12T00:53:36.876Z,90.00
2022-10-12T00:56:10.938Z,90.30
2022-10-12T00:58:40.609Z,90.10
2022-10-12T01:01:10.537Z,90.00
2022-10-12T01:03:39.259Z,90.10
2022-10-12T01:06:08.555Z,90.10
2022-10-12T01:08:37.829Z,90.40
2022-10-12T01:11:06.668Z,90.50
2022-10-12T01:13:35.154Z,90.50
2022-10-12T01:16:12.837Z,90.50
2022-10-12T01:18:47.401Z,90.60
2022-10-12T01:21:19.953Z,90.70
2022-10-12T01:24:22.154Z,90.60
2022-10-12T01:27:06.997Z,90.50
2022-10-12T01:29:52.445Z,90.40
2022-10-12T01:32:25.132Z,90.30
2022-10-12T01:35:00.283Z,90.20
2022-10-12T01:37:39.273Z,90.20
2022-10-12T01:40:13.803Z,90.20
2022-10-12T01:42:44.522Z,90.00
2022-10-12T01:45:17.134Z,89.90
2022-10-12T01:47:49.641Z,89.90
2022-10-12T01:50:18.875Z,89.90
2022-10-12T01:52:58.337Z,89.90
2022-10-12T01:55:38.306Z,89.70
2022-10-12T01:58:32.445Z,89.40
2022-10-12T02:01:11.491Z,89.80
2022-10-12T02:03:47.482Z,90.10
2022-10-12T02:06:19.745Z,90.30
2022-10-12T02:08:56.555Z,90.40
2022-10-12T02:11:26.842Z,90.50
2022-10-12T02:14:00.442Z,90.60
2022-10-12T02:16:37.424Z,90.70
2022-10-12T02:19:08.794Z,90.90
2022-10-12T02:21:37.338Z,91.00
2022-10-12T02:24:08.964Z,91.20
2022-10-12T02:26:42.154Z,91.20
2022-10-12T02:29:14.786Z,91.20
2022-10-12T02:31:52.190Z,91.20
2022-10-12T02:34:24.624Z,91.20
2022-10-12T02:36:58.567Z,91.20
2022-10-12T02:39:31.273Z,91.30
2022-10-12T02:42:08.226Z,91.40
2022-10-12T02:44:40.165Z,91.60
2022-10-12T02:47:12.484Z,92.00
2022-10-12T02:49:42.521Z,92.20
2022-10-12T02:52:11.056Z,92.60
2022-10-12T02:54:40.887Z,92.50
2022-10-12T02:57:09.328Z,92.50
2022-10-12T02:59:37.696Z,92.30
2022-10-12T03:02:06.167Z,92.30
2022-10-12T03:04:36.929Z,92.20
2022-10-12T03:07:05.446Z,92.20
2022-10-12T03:09:33.703Z,92.20
2022-10-12T03:12:02.029Z,92.20
2022-10-12T03:14:31.171Z,92.40
2022-10-12T03:16:59.436Z,92.40
2022-10-12T03:19:27.715Z,92.30
2022-10-12T03:21:57.372Z,92.20
2022-10-12T03:24:25.695Z,92.50
2022-10-12T03:26:54.100Z,92.00
2022-10-12T03:29:22.394Z,91.90
2022-10-12T03:31:50.655Z,91.70
2022-10-12T03:34:18.834Z,91.50
2022-10-12T03:36:47.083Z,91.40
2022-10-12T03:39:16.675Z,91.40
2022-10-12T03:41:44.914Z,91.50
2022-10-12T03:44:13.282Z,91.80
2022-10-12T03:46:41.553Z,92.50
2022-10-12T03:49:10.063Z,92.70
2022-10-12T03:51:38.373Z,92.60
2022-10-12T03:54:06.746Z,92.60
2022-10-12T03:56:36.683Z,92.60
2022-10-12T03:59:05.536Z,92.70
2022-10-12T04:01:34.029Z,92.60
2022-10-12T04:04:02.407Z,92.70
2022-10-12T04:06:30.695Z,92.80
2022-10-12T04:08:58.954Z,92.90
2022-10-12T04:11:27.243Z,93.00
2022-10-12T04:13:56.854Z,92.60
2022-10-12T04:16:27.465Z,92.40
2022-10-12T04:18:58.735Z,92.50
2022-10-12T04:21:27.090Z,92.40
2022-10-12T04:23:55.334Z,92.40
2022-10-12T04:26:23.626Z,92.70
2022-10-12T04:28:52.012Z,92.60
2022-10-12T04:31:21.805Z,92.40
2022-10-12T04:33:50.086Z,92.50
2022-10-12T04:36:18.394Z,92.50
2022-10-12T04:38:46.642Z,92.80
2022-10-12T04:41:14.903Z,92.70
2022-10-12T04:43:43.254Z,92.90
2022-10-12T04:46:11.762Z,92.50
2022-10-12T04:48:41.406Z,92.20
2022-10-12T04:51:09.893Z,92.40
2022-10-12T04:53:38.192Z,92.80
2022-10-12T04:56:07.367Z,92.70
2022-10-12T04:58:35.779Z,92.80
2022-10-12T05:01:04.208Z,93.00
2022-10-12T05:03:32.567Z,93.80
2022-10-12T05:06:02.222Z,93.70
2022-10-12T05:08:30.516Z,93.40
2022-10-12T05:10:59.388Z,93.40
2022-10-12T05:13:28.749Z,93.70
2022-10-12T05:15:57.380Z,94.60
2022-10-12T05:18:26.225Z,94.40
2022-10-12T05:20:56.972Z,94.70
2022-10-12T05:23:26.992Z,95.20
2022-10-12T05:25:56.278Z,95.60
2022-10-12T05:28:24.814Z,95.70
2022-10-12T05:30:53.389Z,95.90
2022-10-12T05:33:21.751Z,96.30
2022-10-12T05:35:56.146Z,96.70
2022-10-12T05:38:26.134Z,96.90
2022-10-12T05:41:00.045Z,97.20
2022-10-12T05:43:29.454Z,97.40
2022-10-12T05:45:57.804Z,98.00
2022-10-12T05:48:26.046Z,98.10
2022-10-12T05:50:55.193Z,98.50
2022-10-12T05:53:23.786Z,98.70
2022-10-12T05:55:58.076Z,98.80
2022-10-12T05:58:27.555Z,98.80
2022-10-12T06:00:56.535Z,98.80
2022-10-12T06:03:26.361Z,98.70
2022-10-12T06:05:55.041Z,98.90
2022-10-12T06:08:23.417Z,98.90
2022-10-12T06:10:52.380Z,99.10
2022-10-12T06:13:22.075Z,99.10
2022-10-12T06:15:50.970Z,99.10
2022-10-12T06:18:19.883Z,98.90
2022-10-12T06:20:49.248Z,98.80
2022-10-12T06:23:17.696Z,98.70
2022-10-12T06:25:47.759Z,98.50
2022-10-12T06:28:16.481Z,98.40
2022-10-12T06:30:46.127Z,98.20
2022-10-12T06:33:14.404Z,98.10
2022-10-12T06:35:42.706Z,98.00
2022-10-12T06:38:11.043Z,98.10
2022-10-12T06:40:39.324Z,98.10
2022-10-12T06:43:07.661Z,98.10
2022-10-12T06:45:36.072Z,98.00
2022-10-12T06:48:06.521Z,98.10
2022-10-12T06:50:35.355Z,98.10
2022-10-12T06:53:03.895Z,98.10
2022-10-12T06:55:32.134Z,98.20
2022-10-12T06:58:00.472Z,98.40
2022-10-12T07:00:28.793Z,98.60
2022-10-12T07:02:57.075Z,98.50
2022-10-12T07:05:27.323Z,98.40
2022-10-12T07:07:55.815Z,98.30
2022-10-12T07:10:25.055Z,98.20
2022-10-12T07:12:53.430Z,98.20
2022-10-12T07:15:21.712Z,98.10
2022-10-12T07:17:50.166Z,97.60
2022-10-12T07:20:18.565Z,97.10
2022-10-12T07:22:48.175Z,96.00
2022-10-12T07:25:16.576Z,95.80
2022-10-12T07:27:48.051Z,95.40
2022-10-12T07:30:16.505Z,95.40
2022-10-12T07:32:46.427Z,95.00
2022-10-12T07:35:14.763Z,94.60
2022-10-12T07:37:43.090Z,94.20
2022-10-12T07:40:12.906Z,94.10
2022-10-12T07:42:59.170Z,94.10
2022-10-12T07:45:30.051Z,93.70
2022-10-12T07:47:58.304Z,93.70
2022-10-12T07:50:26.632Z,93.60
2022-10-12T07:52:54.962Z,93.60
2022-10-12T07:55:24.586Z,93.40
2022-10-12T07:57:52.946Z,93.40
2022-10-12T08:00:22.243Z,93.30
2022-10-12T08:02:50.626Z,92.10
2022-10-12T08:05:21.255Z,91.00
2022-10-12T08:07:49.783Z,88.40
2022-10-12T08:10:18.477Z,84.70
2022-10-12T08:12:52.037Z,84.20
2022-10-12T08:15:20.888Z,83.50
2022-10-12T08:17:49.253Z,82.70
2022-10-12T08:20:17.676Z,82.10
2022-10-12T08:22:45.947Z,81.40
2022-10-12T08:25:14.328Z,80.50
2022-10-12T08:27:42.687Z,80.50
2022-10-12T08:30:13.361Z,80.20
2022-10-12T08:32:41.865Z,80.20
2022-10-12T08:35:10.410Z,80.20
2022-10-12T08:37:39.098Z,81.20
2022-10-12T08:40:08.715Z,81.10
2022-10-12T08:42:47.769Z,81.70
2022-10-12T08:45:41.784Z,82.70
2022-10-12T08:48:16.282Z,83.30
2022-10-12T08:50:49.421Z,83.90
2022-10-12T08:53:25.752Z,84.40
2022-10-12T08:55:54.240Z,85.00
2022-10-12T08:58:26.378Z,85.50
2022-10-12T09:01:00.353Z,85.40
2022-10-12T09:03:41.039Z,85.00
2022-10-12T09:06:15.095Z,85.00
2022-10-12T09:08:58.124Z,85.20
2022-10-12T09:11:41.882Z,85.60
2022-10-12T09:14:16.796Z,85.40
2022-10-12T09:16:49.568Z,85.80
2022-10-12T09:19:21.545Z,85.10
2022-10-12T09:21:51.134Z,85.00
2022-10-12T09:24:23.555Z,83.30
2022-10-12T09:26:54.474Z,83.30
2022-10-12T09:29:28.182Z,82.80
2022-10-12T09:32:20.381Z,82.10
2022-10-12T09:34:50.206Z,82.10
2022-10-12T09:37:22.010Z,82.50
2022-10-12T09:39:50.886Z,82.10
2022-10-12T09:42:19.583Z,82.20
2022-10-12T09:44:49.505Z,80.90
2022-10-12T09:47:31.476Z,80.50
2022-10-12T09:50:02.336Z,79.70
2022-10-12T09:52:41.318Z,78.90
2022-10-12T09:55:24.737Z,78.30
2022-10-12T09:57:55.995Z,77.90
2022-10-12T10:00:27.345Z,77.60
2022-10-12T10:02:57.609Z,76.60
2022-10-12T10:05:28.490Z,75.70
2022-10-12T10:08:18.482Z,75.00
2022-10-12T10:10:50.764Z,74.40
2022-10-12T10:13:19.308Z,73.90
2022-10-12T10:15:50.890Z,73.60
2022-10-12T10:18:30.845Z,73.10
2022-10-12T10:21:01.205Z,73.10
2022-10-12T10:23:32.849Z,72.90
2022-10-12T10:26:06.848Z,73.20
2022-10-12T10:28:36.650Z,74.10
2022-10-12T10:31:07.507Z,74.70
2022-10-12T10:33:37.879Z,75.00
2022-10-12T10:36:14.013Z,74.60
2022-10-12T10:38:56.997Z,74.10
2022-10-12T10:41:29.143Z,73.40
2022-10-12T10:43:57.464Z,72.60
2022-10-12T10:46:27.384Z,71.60
2022-10-12T10:49:01.357Z,71.30
2022-10-12T10:51:48.972Z,71.10
2022-10-12T10:54:32.567Z,70.60
2022-10-12T10:57:04.652Z,70.40
2022-10-12T10:59:46.607Z,70.40
2022-10-12T11:02:24.736Z,70.60
2022-10-12T11:05:01.312Z,71.10
2022-10-12T11:07:36.751Z,71.50
2022-10-12T11:10:15.737Z,71.90
2022-10-12T11:12:49.650Z,71.60
2022-10-12T11:15:23.304Z,71.80
2022-10-12T11:17:55.250Z,72.20
2022-10-12T11:20:39.335Z,71.90
2022-10-12T11:23:20.853Z,71.90
2022-10-12T11:26:04.990Z,72.00
2022-10-12T11:28:34.824Z,72.20
2022-10-12T11:31:03.807Z,72.70
2022-10-12T11:33:38.676Z,73.00
2022-10-12T11:36:12.155Z,73.00
2022-10-12T11:38:44.252Z,72.80
2022-10-12T11:44:07.938Z,72.80
2022-10-12T11:46:38.986Z,72.90
2022-10-12T11:49:13.987Z,72.80
2022-10-12T11:51:48.285Z,72.60
2022-10-12T11:54:24.902Z,72.20
2022-10-12T11:56:57.383Z,72.10
2022-10-12T11:59:31.384Z,72.30
2022-10-12T12:02:06.494Z,72.80
2022-10-12T12:04:42.141Z,73.30
2022-10-12T12:07:41.322Z,73.40
2022-10-12T12:10:47.007Z,73.60
2022-10-12T12:13:23.133Z,73.70
2022-10-12T12:16:33.106Z,73.90
2022-10-12T12:19:40.369Z,74.40
2022-10-12T12:22:28.846Z,75.10
2022-10-12T12:25:30.161Z,74.90
2022-10-12T12:28:01.014Z,74.60
2022-10-12T12:30:36.144Z,74.70
2022-10-12T12:33:18.404Z,75.10
2022-10-12T12:35:55.657Z,74.80
2022-10-12T12:38:27.880Z,74.70
2022-10-12T12:41:06.438Z,74.80
2022-10-12T12:44:02.277Z,73.70
2022-10-12T12:47:40.283Z,72.60
2022-10-12T12:50:05.490Z,72.20
2022-10-12T12:52:36.129Z,71.70
2022-10-12T12:55:54.754Z,70.80
2022-10-12T12:58:49.243Z,70.60
2022-10-12T13:01:34.307Z,70.20
2022-10-12T13:04:34.863Z,69.80
2022-10-12T13:07:47.668Z,69.40
2022-10-12T13:10:27.349Z,69.30
2022-10-12T13:13:25.586Z,69.70
2022-10-12T13:16:36.502Z,69.30
2022-10-12T13:19:11.129Z,68.80
2022-10-12T13:21:42.045Z,67.40
2022-10-12T13:24:17.345Z,67.30
2022-10-12T13:26:48.927Z,66.90
2022-10-12T13:29:23.962Z,66.90
2022-10-12T13:31:58.655Z,66.70
2022-10-12T13:34:36.011Z,66.30
2022-10-12T13:37:11.178Z,65.60
2022-10-12T13:39:40.297Z,65.10
2022-10-12T13:42:11.043Z,64.60
2022-10-12T13:44:39.482Z,64.50
2022-10-12T13:47:24.765Z,64.20
2022-10-12T13:49:53.630Z,64.10
2022-10-12T13:52:31.063Z,64.10
2022-10-12T13:55:00.873Z,65.00
2022-10-12T13:57:34.022Z,64.20
2022-10-12T14:00:08.985Z,64.20
2022-10-12T14:02:38.591Z,64.30
2022-10-12T14:05:17.862Z,64.40
2022-10-12T14:07:47.588Z,64.40
2022-10-12T14:10:20.454Z,64.30
2022-10-12T14:12:52.858Z,64.40
2022-10-12T14:15:22.364Z,64.40
2022-10-12T14:17:52.556Z,64.60
2022-10-12T14:20:30.414Z,64.70
2022-10-12T14:23:00.922Z,64.40
2022-10-12T14:25:30.879Z,64.30
2022-10-12T14:28:01.425Z,64.40
2022-10-12T14:30:32.152Z,64.40
2022-10-12T14:33:13.715Z,64.40
2022-10-12T14:35:46.577Z,64.30
2022-10-12T14:38:38.293Z,64.40
2022-10-12T14:41:32.746Z,64.50
2022-10-12T14:44:11.684Z,64.60
2022-10-12T14:46:42.494Z,64.50
2022-10-12T14:49:19.512Z,64.50
2022-10-12T14:51:48.304Z,64.70
2022-10-12T14:54:16.755Z,65.00
2022-10-12T14:56:45.105Z,65.10
2022-10-12T14:59:13.481Z,65.10
2022-10-12T15:01:43.501Z,65.20
2022-10-12T15:04:15.465Z,65.50
2022-10-12T15:06:48.273Z,66.50
2022-10-12T15:09:18.871Z,67.00
2022-10-12T15:11:47.243Z,66.90
2022-10-12T15:14:15.493Z,66.90
2022-10-12T15:16:43.743Z,66.90
2022-10-12T15:19:11.984Z,66.60
2022-10-12T15:21:41.578Z,66.40
2022-10-12T15:24:16.383Z,66.00
2022-10-12T15:26:44.614Z,65.70
2022-10-12T15:29:12.903Z,65.20
2022-10-12T15:31:41.154Z,64.80
2022-10-12T15:34:12.930Z,64.50
2022-10-12T15:36:43.166Z,64.30
2022-10-12T15:39:11.600Z,64.20
2022-10-12T15:41:39.884Z,64.10
2022-10-12T15:44:10.434Z,64.10
2022-10-12T15:46:38.774Z,64.10
2022-10-12T15:49:07.040Z,64.10
2022-10-12T15:51:39.066Z,64.20
2022-10-12T15:54:09.026Z,64.30
2022-10-12T15:56:37.362Z,64.60
2022-10-12T15:59:06.226Z,64.40
2022-10-12T16:01:35.804Z,64.50
2022-10-12T16:04:06.165Z,64.60
2022-10-12T16:06:35.055Z,64.90
2022-10-12T16:09:03.414Z,65.00
2022-10-12T16:11:33.068Z,65.00
2022-10-12T16:14:01.823Z,65.10
2022-10-12T16:16:32.110Z,65.30
2022-10-12T16:19:00.615Z,65.40
2022-10-12T16:21:28.848Z,65.60
2022-10-12T16:23:57.204Z,66.10
2022-10-12T16:26:25.538Z,66.30
2022-10-12T16:28:55.196Z,66.60
2022-10-12T16:31:23.593Z,66.80
2022-10-12T16:33:51.824Z,67.10
2022-10-12T16:36:20.126Z,68.00
2022-10-12T16:38:48.447Z,67.50
2022-10-12T16:41:18.767Z,68.10
2022-10-12T16:43:47.107Z,68.50
2022-10-12T16:46:16.984Z,69.20
2022-10-12T16:48:45.298Z,70.00
2022-10-12T16:51:14.832Z,70.60
2022-10-12T16:53:44.008Z,70.80
2022-10-12T16:56:12.268Z,71.20
2022-10-12T16:58:40.605Z,72.20
2022-10-12T17:01:11.097Z,73.10
2022-10-12T17:03:41.462Z,73.50
2022-10-12T17:06:10.785Z,73.80
2022-10-12T17:08:40.146Z,74.00
2022-10-12T17:11:10.087Z,74.60
2022-10-12T17:13:39.359Z,75.10
2022-10-12T17:16:34.904Z,75.70
2022-10-12T17:19:04.694Z,76.40
2022-10-12T17:21:33.054Z,77.40
2022-10-12T17:24:03.085Z,78.60
2022-10-12T17:26:31.568Z,79.90
2022-10-12T17:28:59.953Z,81.00
2022-10-12T17:31:28.778Z,81.80
2022-10-12T17:33:58.065Z,82.60
2022-10-12T17:36:28.606Z,83.40
2022-10-12T17:38:58.553Z,84.00
2022-10-12T17:41:28.271Z,84.60
2022-10-12T17:43:58.763Z,85.20
2022-10-12T17:46:28.130Z,85.50
2022-10-12T17:48:57.465Z,86.60
2022-10-12T17:51:27.324Z,86.30
2022-10-12T17:53:55.592Z,86.80
2022-10-12T17:56:24.134Z,88.60
2022-10-12T17:58:55.432Z,89.80
2022-10-12T18:01:24.498Z,90.10
2022-10-12T18:03:55.310Z,90.20
2022-10-12T18:06:25.602Z,90.40
2022-10-12T18:08:56.494Z,91.20
2022-10-12T18:11:25.432Z,91.60
2022-10-12T18:13:56.023Z,91.90
2022-10-12T18:16:25.949Z,92.80
2022-10-12T18:18:55.155Z,93.00
2022-10-12T18:21:25.376Z,93.10
2022-10-12T18:23:55.355Z,93.10
2022-10-12T18:26:25.018Z,93.20
2022-10-12T18:28:55.724Z,93.20
2022-10-12T18:31:26.164Z,93.40
2022-10-12T18:33:54.966Z,93.60
2022-10-12T18:36:23.624Z,93.70
2022-10-12T18:38:51.983Z,93.80
2022-10-12T18:41:23.569Z,93.80
2022-10-12T18:43:57.713Z,94.00
2022-10-12T18:46:27.663Z,94.30
2022-10-12T18:48:56.084Z,94.40
2022-10-12T18:51:27.834Z,94.60
2022-10-12T18:53:56.844Z,94.80
2022-10-12T18:56:27.555Z,95.60
2022-10-12T18:58:57.123Z,96.10
2022-10-12T19:01:27.015Z,96.40
2022-10-12T19:03:56.773Z,96.50
2022-10-12T19:06:27.514Z,97.10
2022-10-12T19:08:56.756Z,97.40
2022-10-12T19:11:29.382Z,97.50
2022-10-12T19:14:00.023Z,97.40
2022-10-12T19:16:29.259Z,97.20
2022-10-12T19:18:58.765Z,97.30
2022-10-12T19:21:27.414Z,97.40
2022-10-12T19:23:56.013Z,97.60
2022-10-12T19:26:27.841Z,97.70
2022-10-12T19:28:58.208Z,97.90
2022-10-12T19:31:27.970Z,98.10
2022-10-12T19:33:57.925Z,98.20
2022-10-12T19:36:27.214Z,98.40
2022-10-12T19:38:56.667Z,98.40
2022-10-12T19:41:27.618Z,98.40
2022-10-12T19:43:56.029Z,98.50
2022-10-12T19:46:24.760Z,98.60
2022-10-12T19:48:54.676Z,98.70
2022-10-12T19:51:24.563Z,98.80
2022-10-12T19:53:55.315Z,98.90
2022-10-12T19:56:23.996Z,99.00
2022-10-12T19:58:56.698Z,99.20
2022-10-12T20:01:32.045Z,99.30
2022-10-12T20:04:00.466Z,99.40
2022-10-12T20:06:31.185Z,99.70
2022-10-12T20:09:02.756Z,99.40
2022-10-12T20:11:31.242Z,99.40
2022-10-12T20:14:01.638Z,99.70
2022-10-12T20:16:34.671Z,99.40
2022-10-12T20:19:03.709Z,99.50
2022-10-12T20:21:32.175Z,99.70
2022-10-12T20:24:00.430Z,99.90
2022-10-12T20:26:29.246Z,99.90
2022-10-12T20:28:57.584Z,99.90
2022-10-12T20:31:29.418Z,99.90
2022-10-12T20:33:58.387Z,99.90
2022-10-12T20:36:29.389Z,99.90
2022-10-12T20:38:58.901Z,99.90
2022-10-12T20:41:28.084Z,99.90
2022-10-12T20:43:57.486Z,99.90
2022-10-12T20:46:27.982Z,99.90
2022-10-12T20:48:58.858Z,99.90
2022-10-12T20:51:29.682Z,99.90
2022-10-12T20:54:00.518Z,99.90
2022-10-12T20:56:29.614Z,99.90
2022-10-12T20:58:58.261Z,99.90
2022-10-12T21:01:28.667Z,99.90
2022-10-12T21:03:57.646Z,99.90
2022-10-12T21:06:26.393Z,99.90
2022-10-12T21:08:56.139Z,99.90
2022-10-12T21:11:25.024Z,99.90
2022-10-12T21:13:53.605Z,99.90
2022-10-12T21:16:21.899Z,99.90
2022-10-12T21:18:55.276Z,99.90
2022-10-12T21:21:24.103Z,99.90
2022-10-12T21:23:54.942Z,99.90
2022-10-12T21:26:25.045Z,99.90
2022-10-12T21:28:53.696Z,99.90
2022-10-12T21:31:26.023Z,99.90
2022-10-12T21:33:57.895Z,99.90
2022-10-12T21:36:27.616Z,99.90
2022-10-12T21:38:56.172Z,99.90
2022-10-12T21:41:26.015Z,99.90
2022-10-12T21:43:55.116Z,99.90
2022-10-12T21:46:25.808Z,99.90
2022-10-12T21:48:54.655Z,99.90
2022-10-12T21:51:25.795Z,99.90
2022-10-12T21:53:54.545Z,99.90
2022-10-12T21:56:24.720Z,99.90
2022-10-12T21:58:54.506Z,99.90
2022-10-12T22:01:24.687Z,99.90
2022-10-12T22:03:55.663Z,99.90
2022-10-12T22:06:26.875Z,99.90
2022-10-12T22:08:57.790Z,99.90
2022-10-12T22:11:28.031Z,99.90
2022-10-12T22:14:00.233Z,99.90
2022-10-12T22:16:29.226Z,99.90
2022-10-12T22:18:58.616Z,99.90
2022-10-12T22:21:36.295Z,99.90
2022-10-12T22:24:04.722Z,99.90
2022-10-12T22:26:33.253Z,99.90
2022-10-12T22:30:00.832Z,99.90
2022-10-12T22:32:29.272Z,99.90
2022-10-12T22:34:59.184Z,99.90
2022-10-12T22:37:28.903Z,99.90
2022-10-12T22:39:57.232Z,99.90
2022-10-12T22:42:25.488Z,99.90
2022-10-12T22:44:53.796Z,99.90
2022-10-12T22:47:22.043Z,99.90
2022-10-12T22:49:51.431Z,99.90
2022-10-12T22:52:20.256Z,99.90
2022-10-12T22:54:50.612Z,99.90
2022-10-12T22:57:18.882Z,99.90
2022-10-12T22:59:47.226Z,99.90
2022-10-12T23:02:15.791Z,99.90
2022-10-12T23:04:45.175Z,99.90
2022-10-12T23:07:13.533Z,99.90
2022-10-12T23:09:44.434Z,99.90
2022-10-12T23:12:14.087Z,99.90
2022-10-12T23:14:43.963Z,99.90
2022-10-12T23:17:12.246Z,99.90
2022-10-12T23:19:40.579Z,99.90
2022-10-12T23:22:09.072Z,99.90
2022-10-12T23:24:37.343Z,99.90
2022-10-12T23:27:05.683Z,99.90
2022-10-12T23:29:35.344Z,99.90
2022-10-12T23:32:03.671Z,99.90
2022-10-12T23:34:32.150Z,99.90
2022-10-12T23:37:00.836Z,99.90
2022-10-12T23:39:29.356Z,99.90
2022-10-12T23:41:57.976Z,99.90
2022-10-12T23:44:26.466Z,99.90
2022-10-12T23:46:56.227Z,99.90
2022-10-12T23:49:24.607Z,99.90
2022-10-12T23:51:55.548Z,99.90
2022-10-12T23:54:24.166Z,99.90
2022-10-12T23:56:52.579Z,99.90
2022-10-12T23:59:21.207Z,99.90
